Time;durP1;ratioP1;P1;durP2;ratioP2;P2;SDS_P1;SDS_P2;PMS_P1;PMS_P2;Temp;Humidity;BMP_temperature;BMP_pressure;BME280_temperature;BME280_humidity;BME280_pressure;Samples;Min_cycle;Max_cycle;Signal;HPM_P1;HPM_P2
2023/08/15 00:01:20;;;;;;;14.20;12.90;;;;;;;21.21;72.06;100863.27;221738;1234;59717;-73
2023/08/15 00:06:18;;;;;;;13.00;11.90;;;;;;;21.14;72.26;100861.70;221482;1233;59649;-74
2023/08/15 00:11:09;;;;;;;12.40;11.40;;;;;;;21.09;72.49;100863.58;221745;1235;73962;-73
2023/08/15 00:16:01;;;;;;;13.50;12.30;;;;;;;21.07;72.68;100859.23;221719;1235;59767;-73
2023/08/15 00:20:53;;;;;;;13.70;12.60;;;;;;;21.06;73.00;100855.55;221776;1234;59628;-72
2023/08/15 00:25:44;;;;;;;13.70;12.30;;;;;;;21.02;72.77;100860.23;221686;1233;70594;-73
2023/08/15 00:30:36;;;;;;;13.60;12.40;;;;;;;20.97;73.06;100855.41;221724;1235;59697;-73
2023/08/15 00:35:27;;;;;;;14.30;12.90;;;;;;;20.89;72.92;100853.48;221733;1233;59636;-72
2023/08/15 00:40:19;;;;;;;13.30;12.00;;;;;;;20.83;73.18;100855.39;221658;1237;60316;-73
2023/08/15 00:45:11;;;;;;;14.60;13.10;;;;;;;20.78;73.22;100854.98;221417;1237;59726;-73
2023/08/15 00:50:05;;;;;;;14.60;13.20;;;;;;;20.72;73.45;100855.63;221753;1237;59804;-73
2023/08/15 00:55:00;;;;;;;13.10;12.00;;;;;;;20.67;73.66;100850.64;221681;1235;66543;-72
2023/08/15 00:59:52;;;;;;;14.80;13.30;;;;;;;20.64;73.74;100847.36;221729;1235;60430;-73
2023/08/15 01:04:44;;;;;;;13.90;12.70;;;;;;;20.61;73.80;100844.42;221730;1234;60574;-72
2023/08/15 01:09:36;;;;;;;13.90;12.70;;;;;;;20.54;73.69;100847.20;221813;1234;60414;-73
2023/08/15 01:14:39;;;;;;;13.60;12.30;;;;;;;20.46;73.95;100850.89;221716;1235;60423;-72
2023/08/15 01:19:47;;;;;;;12.60;11.60;;;;;;;20.42;74.08;100845.17;221727;1235;70869;-73
2023/08/15 01:24:38;;;;;;;13.90;12.70;;;;;;;20.37;74.20;100847.57;221685;1237;60558;-73
2023/08/15 01:29:30;;;;;;;13.10;12.00;;;;;;;20.32;74.45;100846.61;221449;1234;60443;-72
2023/08/15 01:34:28;;;;;;;13.80;12.70;;;;;;;20.27;74.35;100847.61;221723;1237;60845;-73
2023/08/15 01:39:31;;;;;;;14.30;12.80;;;;;;;20.20;74.49;100846.88;221686;1235;72246;-73
2023/08/15 01:44:24;;;;;;;13.10;12.00;;;;;;;20.12;74.36;100845.46;221689;1237;72314;-72
2023/08/15 01:49:15;;;;;;;14.10;12.90;;;;;;;20.06;74.64;100846.27;221704;1233;60522;-73
2023/08/15 01:54:07;;;;;;;13.80;12.70;;;;;;;20.01;74.83;100847.42;221663;1234;60558;-72
2023/08/15 01:58:58;;;;;;;14.00;12.90;;;;;;;19.98;75.02;100843.98;221758;1237;60461;-72
2023/08/15 02:03:50;;;;;;;14.30;13.00;;;;;;;19.92;75.17;100849.55;221462;1233;66816;-73
2023/08/15 02:08:42;;;;;;;13.10;12.00;;;;;;;19.87;75.19;100851.05;221699;1233;60391;-73
2023/08/15 02:13:33;;;;;;;14.20;13.00;;;;;;;19.82;75.30;100856.78;221456;1237;61346;-72
2023/08/15 02:18:26;;;;;;;14.50;13.40;;;;;;;19.77;75.55;100857.04;221751;1233;60433;-72
2023/08/15 02:23:18;;;;;;;14.40;12.80;;;;;;;19.76;75.62;100852.48;221811;1234;74290;-73
2023/08/15 02:28:10;;;;;;;14.90;13.60;;;;;;;19.73;75.75;100849.02;221728;1233;60456;-73
2023/08/15 02:33:01;;;;;;;12.40;11.40;;;;;;;19.68;75.79;100851.56;221815;1235;60461;-72
2023/08/15 02:37:52;;;;;;;14.00;12.90;;;;;;;19.63;75.90;100859.02;221697;1234;70937;-72
2023/08/15 02:42:44;;;;;;;14.90;13.80;;;;;;;19.60;76.04;100862.61;221683;1233;60517;-72
2023/08/15 02:47:35;;;;;;;14.30;13.10;;;;;;;19.58;76.10;100863.17;221689;1237;60436;-73
2023/08/15 02:52:27;;;;;;;15.20;14.00;;;;;;;19.55;76.00;100867.96;221390;1233;60648;-73
2023/08/15 02:57:18;;;;;;;13.70;12.70;;;;;;;19.51;76.17;100874.53;221725;1235;60455;-72
2023/08/15 03:02:12;;;;;;;15.20;13.90;;;;;;;19.52;76.41;100875.04;221658;1234;60473;-72
2023/08/15 03:07:04;;;;;;;15.10;13.90;;;;;;;19.52;76.52;100874.69;221672;1237;65742;-73
2023/08/15 03:11:56;;;;;;;14.70;13.20;;;;;;;19.54;76.47;100871.85;221688;1233;60905;-73
2023/08/15 03:16:48;;;;;;;14.10;12.80;;;;;;;19.56;76.55;100875.16;221773;1237;60507;-72
2023/08/15 03:21:40;;;;;;;15.60;13.60;;;;;;;19.58;76.66;100873.54;221689;1234;60565;-73
2023/08/15 03:26:32;;;;;;;14.00;12.70;;;;;;;19.59;76.66;100881.42;221678;1234;73697;-72
2023/08/15 03:31:23;;;;;;;13.40;12.40;;;;;;;19.61;76.79;100877.18;221742;1234;60485;-72
2023/08/15 03:36:19;;;;;;;14.40;13.30;;;;;;;19.61;76.69;100878.75;221422;1235;60519;-73
2023/08/15 03:41:11;;;;;;;14.10;13.10;;;;;;;19.59;76.75;100888.80;221337;1237;60453;-73
2023/08/15 03:46:03;;;;;;;14.60;13.30;;;;;;;19.59;76.75;100891.29;221552;1234;60603;-72
2023/08/15 03:50:59;;;;;;;13.40;12.20;;;;;;;19.60;76.91;100892.13;221761;1234;66366;-73
2023/08/15 03:55:52;;;;;;;14.40;13.10;;;;;;;19.62;76.96;100892.98;221785;1233;60452;-72
2023/08/15 04:00:44;;;;;;;14.70;13.20;;;;;;;19.61;77.00;100894.23;221420;1233;73935;-72
2023/08/15 04:05:36;;;;;;;13.70;12.60;;;;;;;19.63;76.97;100891.20;221425;1237;60440;-73
2023/08/15 04:10:27;;;;;;;13.90;12.60;;;;;;;19.65;77.09;100891.52;221718;1234;60497;-73
2023/08/15 04:15:19;;;;;;;14.60;13.20;;;;;;;19.65;77.15;100900.66;221489;1237;60560;-74
2023/08/15 04:20:12;;;;;;;13.80;12.60;;;;;;;19.68;77.15;100904.32;221632;1234;138633;-74
2023/08/15 04:25:06;;;;;;;13.80;12.50;;;;;;;19.74;77.12;100909.67;221479;1233;66030;-73
2023/08/15 04:29:58;;;;;;;14.30;13.10;;;;;;;19.79;77.10;100910.47;221685;1234;60394;-74
2023/08/15 04:34:49;;;;;;;13.90;12.70;;;;;;;19.82;77.30;100909.89;221701;1234;60544;-74
2023/08/15 04:39:42;;;;;;;14.10;12.70;;;;;;;19.86;77.20;100917.74;221709;1234;60879;-73
2023/08/15 04:44:33;;;;;;;14.30;13.00;;;;;;;19.88;77.26;100920.52;221712;1234;60520;-74
2023/08/15 04:49:25;;;;;;;14.30;13.00;;;;;;;19.91;77.35;100919.94;221704;1234;71193;-74
2023/08/15 04:54:16;;;;;;;14.10;13.00;;;;;;;19.95;77.60;100918.96;221478;1233;60463;-74
2023/08/15 04:59:08;;;;;;;14.20;13.00;;;;;;;20.00;77.59;100914.83;221623;1234;60431;-74
2023/08/15 05:03:59;;;;;;;14.70;13.20;;;;;;;20.08;77.83;100917.51;221472;1237;61577;-74
2023/08/15 05:08:53;;;;;;;13.40;12.30;;;;;;;20.15;77.87;100917.89;221405;1234;68280;-74
2023/08/15 05:13:45;;;;;;;13.60;12.40;;;;;;;20.26;77.91;100917.52;221622;1237;60485;-73
2023/08/15 05:18:36;;;;;;;12.50;11.50;;;;;;;20.40;77.85;100913.16;221445;1234;60449;-73
2023/08/15 05:23:28;;;;;;;12.40;11.40;;;;;;;20.57;77.66;100916.88;221666;1234;60426;-73
2023/08/15 05:28:20;;;;;;;13.60;12.50;;;;;;;20.71;77.63;100918.02;221665;1234;60439;-74
2023/08/15 05:33:12;;;;;;;13.20;12.10;;;;;;;20.86;77.33;100918.20;221696;1234;60726;-73
2023/08/15 05:38:04;;;;;;;12.70;11.70;;;;;;;21.07;77.03;100918.95;221655;1234;73575;-74
2023/08/15 05:42:55;;;;;;;13.00;11.90;;;;;;;21.24;76.83;100916.27;221585;1234;60479;-73
2023/08/15 05:47:46;;;;;;;12.00;10.50;;;;;;;21.39;76.30;100921.70;221726;1233;60547;-74
2023/08/15 05:52:38;;;;;;;12.80;11.50;;;;;;;21.54;75.95;100921.21;221596;1234;72416;-74
2023/08/15 05:57:30;;;;;;;12.90;11.50;;;;;;;21.65;75.69;100921.80;221505;1234;60523;-73
2023/08/15 06:02:21;;;;;;;12.60;11.70;;;;;;;21.78;75.74;100917.95;221660;1233;60526;-74
2023/08/15 06:07:13;;;;;;;11.40;10.40;;;;;;;21.90;75.27;100913.36;221704;1233;60456;-73
2023/08/15 06:12:05;;;;;;;12.10;10.90;;;;;;;22.04;75.35;100915.66;221642;1233;60594;-74
2023/08/15 06:16:56;;;;;;;11.10;10.10;;;;;;;22.17;74.97;100921.66;221667;1233;60448;-73
2023/08/15 06:21:48;;;;;;;11.70;10.50;;;;;;;22.42;74.48;100923.43;221683;1233;66907;-74
2023/08/15 06:26:39;;;;;;;11.10;10.30;;;;;;;23.05;73.27;100923.15;221572;1234;60439;-73
2023/08/15 06:31:31;;;;;;;9.50;8.70;;;;;;;23.85;71.79;100918.94;221686;1234;60511;-74
2023/08/15 06:36:23;;;;;;;10.10;9.20;;;;;;;24.40;70.15;100919.95;221608;1233;60424;-74
2023/08/15 06:41:14;;;;;;;9.90;9.00;;;;;;;24.27;69.97;100920.99;221618;1234;60461;-73
2023/08/15 06:46:06;;;;;;;9.20;8.50;;;;;;;24.25;69.97;100917.89;221645;1237;60434;-73
2023/08/15 06:50:57;;;;;;;9.30;8.40;;;;;;;24.81;69.00;100916.65;221676;1234;73853;-74
2023/08/15 06:55:50;;;;;;;7.80;7.10;;;;;;;27.31;65.02;100920.55;221670;1234;60442;-74
2023/08/15 07:00:44;;;;;;;7.20;6.60;;;;;;;30.46;60.84;100918.36;221689;1237;60898;-74
2023/08/15 07:05:35;;;;;;;7.40;6.70;;;;;;;30.79;59.75;100915.19;221682;1234;60468;-74
2023/08/15 07:10:27;;;;;;;8.40;7.50;;;;;;;31.68;57.36;100917.54;221604;1234;60411;-74
2023/08/15 07:15:18;;;;;;;6.70;6.20;;;;;;;32.42;55.39;100917.27;221567;1234;65841;-75
2023/08/15 07:20:14;;;;;;;6.80;6.20;;;;;;;32.50;54.64;100919.02;221625;1234;60521;-74
2023/08/15 07:25:06;;;;;;;7.70;6.60;;;;;;;31.99;54.09;100922.39;221614;1234;73666;-74
2023/08/15 07:29:58;;;;;;;7.10;6.40;;;;;;;31.37;54.06;100924.62;221664;1233;60558;-74
2023/08/15 07:34:50;;;;;;;7.20;6.50;;;;;;;31.45;53.38;100918.38;221492;1234;60442;-74
2023/08/15 07:39:41;;;;;;;7.80;7.00;;;;;;;31.26;53.25;100916.62;221774;1233;60390;-74
2023/08/15 07:44:33;;;;;;;8.60;5.60;;;;;;;33.08;50.30;100914.77;221699;1234;60468;-75
2023/08/15 07:49:24;;;;;;;6.70;5.20;;;;;;;34.04;48.36;100914.80;221626;1234;60443;-74
2023/08/15 07:54:16;;;;;;;5.20;4.60;;;;;;;33.03;48.97;100910.67;221629;1234;60455;-74
2023/08/15 07:59:07;;;;;;;5.10;4.70;;;;;;;33.18;48.11;100905.10;221685;1234;67051;-74
2023/08/15 08:04:00;;;;;;;5.10;4.30;;;;;;;32.54;48.09;100908.13;221565;1234;60425;-74
2023/08/15 08:08:52;;;;;;;4.70;4.40;;;;;;;33.29;46.23;100905.88;221652;1234;60417;-74
2023/08/15 08:13:43;;;;;;;5.90;5.00;;;;;;;33.80;45.76;100904.50;221708;1234;60525;-75
2023/08/15 08:18:35;;;;;;;6.50;4.80;;;;;;;32.62;46.21;100902.72;221626;1234;74512;-74
2023/08/15 08:23:26;;;;;;;5.70;5.00;;;;;;;31.75;46.63;100902.16;221515;1237;60442;-74
2023/08/15 08:28:17;;;;;;;5.10;4.70;;;;;;;31.90;46.47;100901.66;221720;1233;60456;-74
2023/08/15 08:33:10;;;;;;;5.10;4.00;;;;;;;31.74;46.55;100895.09;221297;1233;72461;-74
2023/08/15 08:38:01;;;;;;;5.00;4.50;;;;;;;31.24;46.63;100892.75;221564;1237;60429;-74
2023/08/15 08:42:53;;;;;;;4.90;4.40;;;;;;;31.11;46.09;100889.48;221731;1234;60532;-74
2023/08/15 08:47:46;;;;;;;4.90;4.60;;;;;;;30.75;46.11;100877.87;221596;1234;60417;-74
2023/08/15 08:52:41;;;;;;;6.00;5.00;;;;;;;30.41;46.71;100874.17;221577;1235;66880;-74
2023/08/15 08:57:35;;;;;;;4.80;4.30;;;;;;;30.22;46.69;100871.03;221638;1234;60887;-74
2023/08/15 09:02:27;;;;;;;6.20;5.10;;;;;;;30.22;46.48;100869.04;221614;1234;72348;-74
2023/08/15 09:07:19;;;;;;;5.30;4.80;;;;;;;30.96;45.62;100871.48;221557;1237;60574;-74
2023/08/15 09:12:31;;;;;;;5.10;4.70;;;;;;;31.61;45.13;100874.73;221544;1237;60527;-74
2023/08/15 09:17:25;;;;;;;3.70;3.40;;;;;;;31.18;44.89;100877.54;221579;1237;68023;-74
2023/08/15 14:19:09;;;;;;;2.70;2.50;;;;;;;37.18;24.71;100740.42;219759;1239;60587;-77
2023/08/15 15:09:44;;;;;;;2.80;2.60;;;;;;;36.69;24.66;100725.53;218055;1248;60684;-77
2023/08/15 16:43:26;;;;;;;3.50;2.60;;;;;;;34.03;27.71;100705.78;217552;1255;72604;-76
2023/08/15 18:10:42;;;;;;;5.40;3.00;;;;;;;27.83;38.95;100729.40;219007;1244;60678;-76
2023/08/15 18:16:48;;;;;;;2.80;2.50;;;;;;;27.55;39.53;100733.94;219121;1244;73792;-76
2023/08/15 21:28:24;;;;;;;26.70;16.30;;;;;;;21.98;55.01;100846.80;219101;1243;66191;-76
2023/08/15 21:35:36;;;;;;;;;;;;;;;;;;;;;
2023/08/15 23:03:45;;;;;;;13.30;9.10;;;;;;;20.75;59.91;100884.64;215869;1256;68484;-76
2023/08/15 23:46:49;;;;;;;12.00;9.30;;;;;;;20.02;61.17;100873.29;217526;1251;72412;-77
